createdAt,value
2018-11-26T00:00:02.026Z,19.28
2018-11-26T00:01:02.137Z,19.28
2018-11-26T00:02:02.035Z,19.27
2018-11-26T00:03:02.015Z,19.26
2018-11-26T00:04:02.161Z,19.27
2018-11-26T00:05:02.752Z,19.26
2018-11-26T00:06:01.915Z,19.26
2018-11-26T00:07:01.873Z,19.26
2018-11-26T00:08:01.943Z,19.25
2018-11-26T00:09:01.817Z,19.24
2018-11-26T00:10:01.895Z,19.24
2018-11-26T00:11:01.800Z,19.24
2018-11-26T00:12:01.905Z,19.25
2018-11-26T00:13:01.994Z,19.23
2018-11-26T00:14:01.896Z,19.23
2018-11-26T00:15:01.968Z,19.23
2018-11-26T00:16:01.793Z,19.23
2018-11-26T00:17:01.874Z,19.23
2018-11-26T00:18:01.734Z,19.22
2018-11-26T00:19:01.992Z,19.21
2018-11-26T00:20:02.103Z,19.21
2018-11-26T00:21:01.786Z,19.19
2018-11-26T00:22:02.023Z,19.2
2018-11-26T00:23:01.883Z,19.2
2018-11-26T00:24:01.931Z,19.2
2018-11-26T00:25:02.040Z,19.19
2018-11-26T00:26:01.982Z,19.19
2018-11-26T00:27:02.010Z,19.18
2018-11-26T00:28:02.288Z,19.18
2018-11-26T00:29:02.918Z,19.18
2018-11-26T00:30:02.378Z,19.19
2018-11-26T00:31:02.060Z,19.18
2018-11-26T00:32:01.919Z,19.17
2018-11-26T00:33:02.174Z,19.16
2018-11-26T00:34:01.890Z,19.16
2018-11-26T00:35:01.928Z,19.16
2018-11-26T00:36:02.048Z,19.16
2018-11-26T00:37:01.936Z,19.16
2018-11-26T00:38:02.075Z,19.15
2018-11-26T00:39:01.786Z,19.15
2018-11-26T00:40:02.516Z,19.14
2018-11-26T00:41:01.771Z,19.14
2018-11-26T00:42:01.953Z,19.13
2018-11-26T00:43:02.033Z,19.13
2018-11-26T00:44:02.284Z,19.12
2018-11-26T00:45:02.104Z,19.13
2018-11-26T00:46:02.028Z,19.12
2018-11-26T00:47:01.983Z,19.12
2018-11-26T00:48:01.895Z,19.1
2018-11-26T00:49:01.938Z,19.12
2018-11-26T00:50:02.218Z,19.11
2018-11-26T00:51:02.031Z,19.1
2018-11-26T00:52:02.590Z,19.09
2018-11-26T00:53:02.845Z,19.08
2018-11-26T00:54:02.040Z,19.09
2018-11-26T00:55:01.974Z,19.09
2018-11-26T00:56:02.045Z,19.09
2018-11-26T00:57:01.943Z,19.09
2018-11-26T00:58:02.213Z,19.07
2018-11-26T00:59:02.037Z,19.07
2018-11-26T01:00:02.162Z,19.06
2018-11-26T01:01:02.726Z,19.06
2018-11-26T01:02:02.387Z,19.06
2018-11-26T01:03:02.039Z,19.07
2018-11-26T01:04:01.941Z,19.06
2018-11-26T01:05:01.735Z,19.06
2018-11-26T01:06:01.924Z,19.06
2018-11-26T01:07:01.991Z,19.05
2018-11-26T01:08:02.109Z,19.05
2018-11-26T01:09:02.209Z,19.04
2018-11-26T01:10:02.113Z,19.04
2018-11-26T01:11:02.064Z,19.03
2018-11-26T01:12:01.769Z,19.03
2018-11-26T01:13:02.166Z,19.03
2018-11-26T01:14:01.776Z,19.03
2018-11-26T01:15:02.468Z,19.03
2018-11-26T01:16:01.745Z,19.03
2018-11-26T01:17:02.179Z,19.03
2018-11-26T01:18:02.208Z,19.02
2018-11-26T01:19:02.730Z,19.02
2018-11-26T01:20:02.014Z,19.02
2018-11-26T01:21:01.877Z,19.01
2018-11-26T01:22:02.233Z,19.02
2018-11-26T01:23:02.126Z,19.01
2018-11-26T01:24:01.962Z,19.01
2018-11-26T01:25:02.111Z,19
2018-11-26T01:26:02.588Z,19
2018-11-26T01:27:02.029Z,18.99
2018-11-26T01:28:01.916Z,19
2018-11-26T01:29:01.963Z,18.99
2018-11-26T01:30:02.088Z,18.99
2018-11-26T01:31:01.977Z,18.97
2018-11-26T01:32:01.788Z,18.98
2018-11-26T01:33:01.952Z,18.98
2018-11-26T01:34:02.267Z,18.98
2018-11-26T01:35:02.122Z,18.96
2018-11-26T01:36:02.217Z,18.96
2018-11-26T01:37:01.963Z,18.97
2018-11-26T01:38:02.017Z,18.96
2018-11-26T01:39:01.758Z,18.96
2018-11-26T01:40:01.849Z,18.95
2018-11-26T01:41:01.688Z,18.95
2018-11-26T01:42:01.848Z,18.94
2018-11-26T01:43:01.863Z,18.95
2018-11-26T01:44:01.784Z,18.95
2018-11-26T01:45:01.980Z,18.94
2018-11-26T01:46:01.751Z,18.93
2018-11-26T01:47:02.088Z,18.93
2018-11-26T01:48:01.796Z,18.94
2018-11-26T01:49:02.323Z,18.93
2018-11-26T01:50:01.940Z,18.92
2018-11-26T01:51:01.746Z,18.93
2018-11-26T01:52:01.795Z,18.92
2018-11-26T01:53:01.764Z,18.93
2018-11-26T01:54:02.251Z,18.92
2018-11-26T01:55:01.688Z,18.93
2018-11-26T01:56:02.340Z,18.91
2018-11-26T01:57:01.881Z,18.91
2018-11-26T01:58:01.765Z,18.91
2018-11-26T01:59:01.941Z,18.9
2018-11-26T02:00:01.783Z,18.9
2018-11-26T02:01:01.769Z,18.9
2018-11-26T02:02:01.867Z,18.9
2018-11-26T02:03:01.864Z,18.88
2018-11-26T02:04:02.081Z,18.88
2018-11-26T02:05:02.031Z,18.88
2018-11-26T02:06:01.926Z,18.89
2018-11-26T02:07:02.111Z,18.88
2018-11-26T02:08:02.240Z,18.88
2018-11-26T02:09:02.117Z,18.87
2018-11-26T02:10:01.666Z,18.88
2018-11-26T02:11:02.369Z,18.87
2018-11-26T02:12:02.369Z,18.87
2018-11-26T02:13:02.412Z,18.87
2018-11-26T02:14:01.985Z,18.86
2018-11-26T02:15:01.908Z,18.86
2018-11-26T02:16:01.706Z,18.85
2018-11-26T02:17:02.232Z,18.85
2018-11-26T02:18:01.978Z,18.86
2018-11-26T02:19:01.714Z,18.85
2018-11-26T02:20:01.969Z,18.85
2018-11-26T02:21:02.137Z,18.84
2018-11-26T02:22:02.348Z,18.84
2018-11-26T02:23:01.736Z,18.84
2018-11-26T02:24:02.171Z,18.84
2018-11-26T02:25:01.791Z,18.83
2018-11-26T02:26:01.922Z,18.84
2018-11-26T02:27:02.019Z,18.83
2018-11-26T02:28:01.892Z,18.83
2018-11-26T02:29:01.987Z,18.83
2018-11-26T02:30:02.088Z,18.83
2018-11-26T02:31:02.739Z,18.82
2018-11-26T02:32:01.730Z,18.82
2018-11-26T02:33:01.830Z,18.82
2018-11-26T02:34:01.941Z,18.82
2018-11-26T02:35:01.919Z,18.83
2018-11-26T02:36:02.133Z,18.81
2018-11-26T02:37:02.136Z,18.8
2018-11-26T02:38:01.872Z,18.8
2018-11-26T02:39:02.127Z,18.8
2018-11-26T02:40:02.077Z,18.79
2018-11-26T02:41:02.252Z,18.79
2018-11-26T02:42:02.285Z,18.8
2018-11-26T02:43:02.414Z,18.8
2018-11-26T02:44:01.816Z,18.8
2018-11-26T02:45:01.864Z,18.78
2018-11-26T02:46:02.569Z,18.77
2018-11-26T02:47:02.271Z,18.78
2018-11-26T02:48:02.066Z,18.79
2018-11-26T02:49:02.112Z,18.77
2018-11-26T02:50:01.927Z,18.77
2018-11-26T02:51:02.216Z,18.77
2018-11-26T02:52:02.306Z,18.78
2018-11-26T02:53:02.166Z,18.77
2018-11-26T02:54:01.875Z,18.77
2018-11-26T02:55:01.933Z,18.76
2018-11-26T02:56:01.853Z,18.76
2018-11-26T02:57:01.762Z,18.76
2018-11-26T02:58:02.286Z,18.75
2018-11-26T02:59:01.988Z,18.76
2018-11-26T03:00:01.789Z,18.75
2018-11-26T03:01:01.845Z,18.74
2018-11-26T03:02:02.033Z,18.75
2018-11-26T03:03:01.897Z,18.74
2018-11-26T03:04:02.052Z,18.75
2018-11-26T03:05:01.923Z,18.73
2018-11-26T03:06:02.142Z,18.74
2018-11-26T03:07:01.909Z,18.73
2018-11-26T03:08:02.163Z,18.74
2018-11-26T03:09:01.735Z,18.74
2018-11-26T03:10:02.295Z,18.74
2018-11-26T03:11:01.753Z,18.72
2018-11-26T03:12:01.859Z,18.73
2018-11-26T03:13:02.017Z,18.74
2018-11-26T03:14:01.861Z,18.73
2018-11-26T03:15:01.967Z,18.72
2018-11-26T03:16:01.732Z,18.72
2018-11-26T03:17:01.961Z,18.72
2018-11-26T03:18:01.803Z,18.73
2018-11-26T03:19:01.948Z,18.72
2018-11-26T03:20:01.739Z,18.71
2018-11-26T03:21:01.958Z,18.71
2018-11-26T03:22:01.709Z,18.71
2018-11-26T03:23:01.770Z,18.7
2018-11-26T03:24:02.030Z,18.7
2018-11-26T03:25:01.743Z,18.7
2018-11-26T03:26:01.908Z,18.69
2018-11-26T03:27:01.780Z,18.69
2018-11-26T03:28:01.809Z,18.7
2018-11-26T03:29:01.794Z,18.7
2018-11-26T03:30:01.776Z,18.7
2018-11-26T03:31:01.605Z,18.7
2018-11-26T03:32:01.908Z,18.7
2018-11-26T03:33:01.841Z,18.7
2018-11-26T03:34:01.679Z,18.69
2018-11-26T03:35:01.915Z,18.69
2018-11-26T03:36:02.061Z,18.7
2018-11-26T03:37:02.086Z,18.68
2018-11-26T03:38:02.153Z,18.68
2018-11-26T03:39:01.762Z,18.68
2018-11-26T03:40:02.277Z,18.67
2018-11-26T03:41:01.669Z,18.67
2018-11-26T03:42:01.688Z,18.67
2018-11-26T03:43:01.777Z,18.67
2018-11-26T03:44:01.916Z,18.67
2018-11-26T03:45:01.947Z,18.68
2018-11-26T03:46:01.823Z,18.66
2018-11-26T03:47:02.227Z,18.66
2018-11-26T03:48:01.922Z,18.66
2018-11-26T03:49:02.024Z,18.66
2018-11-26T03:50:01.842Z,18.66
2018-11-26T03:51:01.838Z,18.66
2018-11-26T03:52:01.981Z,18.66
2018-11-26T03:53:01.721Z,18.66
2018-11-26T03:54:01.934Z,18.65
2018-11-26T03:55:02.289Z,18.65
2018-11-26T03:56:02.075Z,18.65
2018-11-26T03:57:01.728Z,18.65
2018-11-26T03:58:01.781Z,18.64
2018-11-26T03:59:01.892Z,18.64
2018-11-26T04:00:01.781Z,18.65
2018-11-26T04:01:01.922Z,18.65
2018-11-26T04:02:01.705Z,18.64
2018-11-26T04:03:01.976Z,18.64
2018-11-26T04:04:02.043Z,18.63
2018-11-26T04:05:01.942Z,18.63
2018-11-26T04:06:01.777Z,18.63
2018-11-26T04:07:02.075Z,18.64
2018-11-26T04:08:01.742Z,18.63
2018-11-26T04:09:01.922Z,18.63
2018-11-26T04:10:01.969Z,18.62
2018-11-26T04:11:01.777Z,18.61
2018-11-26T04:12:01.831Z,18.61
2018-11-26T04:13:02.047Z,18.62
2018-11-26T04:14:02.199Z,18.61
2018-11-26T04:15:01.782Z,18.62
2018-11-26T04:16:02.128Z,18.61
2018-11-26T04:17:01.949Z,18.61
2018-11-26T04:18:01.777Z,18.61
2018-11-26T04:19:02.357Z,18.61
2018-11-26T04:20:01.727Z,18.61
2018-11-26T04:21:01.958Z,18.6
2018-11-26T04:22:01.931Z,18.6
2018-11-26T04:23:02.067Z,18.61
2018-11-26T04:24:02.193Z,18.59
2018-11-26T04:25:01.824Z,18.61
2018-11-26T04:26:02.208Z,18.6
2018-11-26T04:27:02.025Z,18.6
2018-11-26T04:28:01.933Z,18.6
2018-11-26T04:29:01.745Z,18.59
2018-11-26T04:30:02.737Z,18.59
2018-11-26T04:31:01.822Z,18.59
2018-11-26T04:32:02.264Z,18.59
2018-11-26T04:33:02.236Z,18.58
2018-11-26T04:34:01.765Z,18.58
2018-11-26T04:35:01.853Z,18.58
2018-11-26T04:36:01.743Z,18.59
2018-11-26T04:37:02.106Z,18.58
2018-11-26T04:38:01.755Z,18.58
2018-11-26T04:39:02.013Z,18.58
2018-11-26T04:40:01.621Z,18.58
2018-11-26T04:41:01.779Z,18.58
2018-11-26T04:42:02.147Z,18.58
2018-11-26T04:43:02.021Z,18.58
2018-11-26T04:44:01.931Z,18.6
2018-11-26T04:45:01.690Z,18.6
2018-11-26T04:46:01.896Z,18.6
2018-11-26T04:47:02.028Z,18.61
2018-11-26T04:48:01.752Z,18.61
2018-11-26T04:49:01.544Z,18.62
2018-11-26T04:50:01.821Z,18.62
2018-11-26T04:51:01.959Z,18.64
2018-11-26T04:52:01.707Z,18.64
2018-11-26T04:53:01.780Z,18.64
2018-11-26T04:54:01.717Z,18.65
2018-11-26T04:55:01.829Z,18.66
2018-11-26T04:56:02.343Z,18.68
2018-11-26T04:57:01.761Z,18.69
2018-11-26T04:58:01.957Z,18.69
2018-11-26T04:59:01.751Z,18.71
2018-11-26T05:00:01.804Z,18.71
2018-11-26T05:01:01.656Z,18.71
2018-11-26T05:02:01.744Z,18.73
2018-11-26T05:03:02.022Z,18.74
2018-11-26T05:04:01.730Z,18.74
2018-11-26T05:05:01.830Z,18.75
2018-11-26T05:06:01.606Z,18.77
2018-11-26T05:07:02.076Z,18.79
2018-11-26T05:08:01.706Z,18.79
2018-11-26T05:09:01.650Z,18.81
2018-11-26T05:10:01.871Z,18.82
2018-11-26T05:11:03.033Z,18.83
2018-11-26T05:12:02.101Z,18.84
2018-11-26T05:13:02.000Z,18.85
2018-11-26T05:14:02.146Z,18.86
2018-11-26T05:15:01.643Z,18.88
2018-11-26T05:16:01.724Z,18.9
2018-11-26T05:17:02.143Z,18.9
2018-11-26T05:18:02.273Z,18.91
2018-11-26T05:19:01.837Z,18.93
2018-11-26T05:20:02.164Z,18.93
2018-11-26T05:21:02.339Z,18.94
2018-11-26T05:22:01.680Z,18.96
2018-11-26T05:23:01.919Z,18.96
2018-11-26T05:24:01.835Z,18.97
2018-11-26T05:25:02.601Z,18.99
2018-11-26T05:26:02.118Z,18.99
2018-11-26T05:27:02.139Z,18.99
2018-11-26T05:28:02.033Z,19
2018-11-26T05:29:02.526Z,19.03
2018-11-26T05:30:02.149Z,19.04
2018-11-26T05:31:01.700Z,19.04
2018-11-26T05:32:01.907Z,19.06
2018-11-26T05:33:02.796Z,19.05
2018-11-26T05:34:01.835Z,19.06
2018-11-26T05:35:02.075Z,19.05
2018-11-26T05:36:01.766Z,19.06
2018-11-26T05:37:01.867Z,19.06
2018-11-26T05:38:01.625Z,19.07
2018-11-26T05:39:02.640Z,19.07
2018-11-26T05:40:01.630Z,19.07
2018-11-26T05:41:01.922Z,19.07
2018-11-26T05:42:02.147Z,19.08
2018-11-26T05:43:02.012Z,19.07
2018-11-26T05:44:02.088Z,19.07
2018-11-26T05:45:01.773Z,19.08
2018-11-26T05:46:01.885Z,19.08
2018-11-26T05:47:02.551Z,19.08
2018-11-26T05:48:01.745Z,19.08
2018-11-26T05:49:01.611Z,19.08
2018-11-26T05:50:01.822Z,19.07
2018-11-26T05:51:01.943Z,19.08
2018-11-26T05:52:01.812Z,19.08
2018-11-26T05:53:01.907Z,19.09
2018-11-26T05:54:01.665Z,19.08
2018-11-26T05:55:02.088Z,19.08
2018-11-26T05:56:01.694Z,19.09
2018-11-26T05:57:02.121Z,19.08
2018-11-26T05:58:01.934Z,19.08
2018-11-26T05:59:01.697Z,19.09
2018-11-26T06:00:01.987Z,19.08
2018-11-26T06:01:01.625Z,19.1
2018-11-26T06:02:02.096Z,19.1
2018-11-26T06:03:02.178Z,19.09
2018-11-26T06:04:02.044Z,19.09
2018-11-26T06:05:02.032Z,19.09
2018-11-26T06:06:01.849Z,19.1
2018-11-26T06:07:02.043Z,19.11
2018-11-26T06:08:01.755Z,19.1
2018-11-26T06:09:01.773Z,19.1
2018-11-26T06:10:01.658Z,19.1
2018-11-26T06:11:02.122Z,19.09
2018-11-26T06:12:01.830Z,19.11
2018-11-26T06:13:03.048Z,19.09
2018-11-26T06:14:02.037Z,19.09
2018-11-26T06:15:01.731Z,19.1
2018-11-26T06:16:01.612Z,19.1
2018-11-26T06:17:02.081Z,19.1
2018-11-26T06:18:02.064Z,19.1
2018-11-26T06:19:02.116Z,19.09
2018-11-26T06:20:01.996Z,19.09
2018-11-26T06:21:01.947Z,19.09
2018-11-26T06:22:01.755Z,19.09
2018-11-26T06:23:01.784Z,19.08
2018-11-26T06:24:01.667Z,19.07
2018-11-26T06:25:01.756Z,19.06
2018-11-26T06:26:02.337Z,19.06
2018-11-26T06:27:02.456Z,19.07
2018-11-26T06:28:02.240Z,19.07
2018-11-26T06:29:02.053Z,19.07
2018-11-26T06:30:01.827Z,19.06
2018-11-26T06:31:01.767Z,19.08
2018-11-26T06:32:01.810Z,19.07
2018-11-26T06:33:01.726Z,19.08
2018-11-26T06:34:01.526Z,19.07
2018-11-26T06:35:01.673Z,19.06
2018-11-26T06:36:01.743Z,19.07
2018-11-26T06:37:01.839Z,19.07
2018-11-26T06:38:02.114Z,19.07
2018-11-26T06:39:01.779Z,19.07
2018-11-26T06:40:01.654Z,19.06
2018-11-26T06:41:01.731Z,19.06
2018-11-26T06:42:01.651Z,19.06
2018-11-26T06:43:02.028Z,19.06
2018-11-26T06:44:02.271Z,19.05
2018-11-26T06:45:01.819Z,19.06
2018-11-26T06:46:01.814Z,19.06
2018-11-26T06:47:01.800Z,19.06
2018-11-26T06:48:01.728Z,19.05
2018-11-26T06:49:02.004Z,19.04
2018-11-26T06:50:02.118Z,19.04
2018-11-26T06:51:01.687Z,19.04
2018-11-26T06:52:01.808Z,19.03
2018-11-26T06:53:02.386Z,19.04
2018-11-26T06:54:01.829Z,19.03
2018-11-26T06:55:01.869Z,19.03
2018-11-26T06:56:01.739Z,19.03
2018-11-26T06:57:01.813Z,19.03
2018-11-26T06:58:01.642Z,19.03
2018-11-26T06:59:02.073Z,19.02
2018-11-26T07:00:01.906Z,19.02
2018-11-26T07:01:01.924Z,19.02
2018-11-26T07:02:01.770Z,19.02
2018-11-26T07:03:02.571Z,19.01
2018-11-26T07:04:02.438Z,19.01
2018-11-26T07:05:01.805Z,19.01
2018-11-26T07:06:02.055Z,19.01
2018-11-26T07:07:01.625Z,19.01
2018-11-26T07:08:01.613Z,19.01
2018-11-26T07:09:02.270Z,19.01
2018-11-26T07:10:01.951Z,19.01
2018-11-26T07:11:02.314Z,19.01
2018-11-26T07:12:01.685Z,19
2018-11-26T07:13:01.914Z,19
2018-11-26T07:14:01.874Z,19
2018-11-26T07:15:02.195Z,19
2018-11-26T07:16:01.669Z,18.99
2018-11-26T07:17:02.006Z,19
2018-11-26T07:18:01.836Z,19
2018-11-26T07:19:01.655Z,19
2018-11-26T07:20:02.235Z,18.99
2018-11-26T07:21:01.953Z,18.99
2018-11-26T07:22:02.045Z,18.99
2018-11-26T07:23:01.561Z,18.99
2018-11-26T07:24:01.991Z,18.99
2018-11-26T07:25:02.700Z,18.99
2018-11-26T07:26:01.648Z,18.99
2018-11-26T07:27:02.061Z,18.98
2018-11-26T07:28:01.725Z,18.98
2018-11-26T07:29:01.772Z,18.98
2018-11-26T07:30:01.814Z,18.98
2018-11-26T07:31:02.005Z,18.99
2018-11-26T07:32:02.118Z,18.98
2018-11-26T07:33:01.980Z,18.98
2018-11-26T07:34:01.710Z,18.98
2018-11-26T07:35:01.555Z,18.98
2018-11-26T07:36:02.029Z,18.98
2018-11-26T07:37:02.491Z,18.98
2018-11-26T07:38:02.231Z,18.97
2018-11-26T07:39:01.711Z,18.98
2018-11-26T07:40:01.743Z,18.98
2018-11-26T07:41:02.215Z,18.97
2018-11-26T07:42:01.704Z,18.97
2018-11-26T07:43:02.224Z,18.98
2018-11-26T07:44:01.793Z,18.97
2018-11-26T07:45:01.690Z,18.97
2018-11-26T07:46:01.843Z,18.97
2018-11-26T07:47:01.729Z,18.97
2018-11-26T07:48:01.886Z,18.97
2018-11-26T07:49:01.702Z,18.97
2018-11-26T07:50:01.451Z,18.96
2018-11-26T07:51:02.806Z,18.97
2018-11-26T07:52:01.664Z,18.97
2018-11-26T07:53:01.656Z,18.97
2018-11-26T07:54:01.680Z,18.96
2018-11-26T07:55:01.783Z,18.96
2018-11-26T07:56:01.670Z,18.97
2018-11-26T07:57:01.777Z,18.96
2018-11-26T07:58:01.608Z,18.96
2018-11-26T07:59:01.620Z,18.96
2018-11-26T08:00:01.665Z,18.96
2018-11-26T08:01:01.781Z,18.96
2018-11-26T08:02:01.575Z,18.95
2018-11-26T08:03:01.652Z,18.97
2018-11-26T08:04:02.169Z,18.96
2018-11-26T08:05:01.657Z,18.95
2018-11-26T08:06:02.379Z,18.95
2018-11-26T08:07:01.864Z,18.96
2018-11-26T08:08:01.641Z,18.95
2018-11-26T08:09:01.797Z,18.96
2018-11-26T08:10:01.575Z,18.95
2018-11-26T08:11:01.789Z,18.96
2018-11-26T08:12:01.594Z,18.95
2018-11-26T08:13:01.801Z,18.96
2018-11-26T08:14:01.637Z,18.95
2018-11-26T08:15:01.711Z,18.96
2018-11-26T08:16:01.615Z,18.95
2018-11-26T08:17:01.909Z,18.95
2018-11-26T08:18:02.046Z,18.95
2018-11-26T08:19:02.162Z,18.95
2018-11-26T08:20:01.720Z,18.95
2018-11-26T08:21:01.671Z,18.96
2018-11-26T08:22:02.021Z,18.94
2018-11-26T08:23:01.937Z,18.95
2018-11-26T08:24:01.540Z,18.95
2018-11-26T08:25:02.170Z,18.95
2018-11-26T08:26:01.639Z,18.95
2018-11-26T08:27:01.851Z,18.95
2018-11-26T08:28:01.889Z,18.95
2018-11-26T08:29:01.589Z,18.95
2018-11-26T08:30:01.957Z,18.95
2018-11-26T08:31:01.778Z,18.95
2018-11-26T08:32:01.951Z,18.95
2018-11-26T08:33:02.006Z,18.96
2018-11-26T08:34:02.049Z,18.95
2018-11-26T08:35:01.612Z,18.95
2018-11-26T08:36:01.716Z,18.95
2018-11-26T08:37:01.779Z,18.95
2018-11-26T08:38:01.789Z,18.95
2018-11-26T08:39:01.965Z,18.95
2018-11-26T08:40:02.110Z,18.94
2018-11-26T08:41:01.823Z,18.95
2018-11-26T08:42:01.660Z,18.94
2018-11-26T08:43:02.136Z,18.95
2018-11-26T08:44:02.759Z,18.95
2018-11-26T08:45:01.675Z,18.95
2018-11-26T08:46:02.340Z,18.95
2018-11-26T08:47:01.605Z,18.95
2018-11-26T08:48:01.812Z,18.95
2018-11-26T08:49:01.807Z,18.95
2018-11-26T08:50:01.891Z,18.95
2018-11-26T08:51:01.836Z,18.94
2018-11-26T08:52:01.728Z,18.95
2018-11-26T08:53:01.632Z,18.95
2018-11-26T08:54:02.166Z,18.95
2018-11-26T08:55:02.842Z,18.95
2018-11-26T08:56:01.902Z,18.95
2018-11-26T08:57:02.603Z,18.95
2018-11-26T08:58:01.663Z,18.95
2018-11-26T08:59:01.781Z,18.95
2018-11-26T09:00:02.051Z,18.96
2018-11-26T09:01:01.777Z,18.95
2018-11-26T09:02:02.168Z,18.96
2018-11-26T09:03:01.724Z,18.95
2018-11-26T09:04:01.754Z,18.95
2018-11-26T09:05:01.873Z,18.95
2018-11-26T09:06:01.781Z,18.96
2018-11-26T09:07:01.945Z,18.96
2018-11-26T09:08:01.981Z,18.96
2018-11-26T09:09:01.673Z,18.96
2018-11-26T09:10:01.999Z,18.97
2018-11-26T09:11:01.599Z,18.96
2018-11-26T09:12:02.013Z,18.96
2018-11-26T09:13:02.089Z,18.95
2018-11-26T09:14:01.715Z,18.97
2018-11-26T09:15:01.706Z,18.96
2018-11-26T09:16:01.585Z,18.97
2018-11-26T09:17:02.146Z,18.96
2018-11-26T09:18:01.686Z,18.97
2018-11-26T09:19:02.175Z,18.97
2018-11-26T09:20:01.858Z,18.97
2018-11-26T09:21:02.775Z,18.97
2018-11-26T09:22:01.742Z,18.97
2018-11-26T09:23:01.639Z,18.98
2018-11-26T09:24:01.707Z,18.97
2018-11-26T09:25:01.595Z,18.98
2018-11-26T09:26:01.669Z,18.98
2018-11-26T09:27:01.606Z,18.96
2018-11-26T09:28:01.770Z,18.97
2018-11-26T09:29:01.790Z,18.96
2018-11-26T09:30:01.644Z,18.96
2018-11-26T09:31:01.782Z,18.96
2018-11-26T09:32:01.575Z,18.97
2018-11-26T09:33:01.673Z,18.96
2018-11-26T09:34:01.970Z,18.96
2018-11-26T09:35:01.734Z,18.95
2018-11-26T09:36:01.577Z,18.96
2018-11-26T09:37:01.720Z,18.96
2018-11-26T09:38:01.704Z,18.95
2018-11-26T09:39:01.632Z,18.95
2018-11-26T09:40:01.771Z,18.95
2018-11-26T09:41:01.618Z,18.95
2018-11-26T09:42:01.710Z,18.95
2018-11-26T09:43:01.686Z,18.95
2018-11-26T09:44:01.744Z,18.95
2018-11-26T09:45:01.534Z,18.95
2018-11-26T09:46:01.693Z,18.94
2018-11-26T09:47:01.723Z,18.94
2018-11-26T09:48:01.555Z,18.94
2018-11-26T09:49:01.642Z,18.94
2018-11-26T09:50:01.762Z,18.94
2018-11-26T09:51:01.712Z,18.93
2018-11-26T09:52:01.921Z,18.93
2018-11-26T09:53:01.588Z,18.94
2018-11-26T09:54:02.549Z,18.93
2018-11-26T09:55:02.113Z,18.94
2018-11-26T09:56:01.637Z,18.94
2018-11-26T09:57:02.218Z,18.93
2018-11-26T09:58:01.703Z,18.92
2018-11-26T09:59:01.771Z,18.93
2018-11-26T10:00:01.614Z,18.93
2018-11-26T10:01:01.593Z,18.93
2018-11-26T10:02:01.852Z,18.93
2018-11-26T10:03:02.087Z,18.93
2018-11-26T10:04:01.861Z,18.92
2018-11-26T10:05:01.566Z,18.93
2018-11-26T10:06:02.050Z,18.93
2018-11-26T10:07:01.530Z,18.93
2018-11-26T10:08:01.642Z,18.93
2018-11-26T10:09:01.790Z,18.92
2018-11-26T10:10:01.713Z,18.93
2018-11-26T10:11:01.803Z,18.93
2018-11-26T10:12:01.586Z,18.92
2018-11-26T10:13:02.353Z,18.92
2018-11-26T10:14:01.539Z,18.92
2018-11-26T10:15:01.584Z,18.92
2018-11-26T10:16:01.750Z,18.92
2018-11-26T10:17:01.717Z,18.92
2018-11-26T10:18:01.788Z,18.92
2018-11-26T10:19:01.539Z,18.91
2018-11-26T10:20:01.889Z,18.92
2018-11-26T10:21:01.643Z,18.91
2018-11-26T10:22:01.675Z,18.91
2018-11-26T10:23:01.840Z,18.92
2018-11-26T10:24:01.994Z,18.91
2018-11-26T10:25:05.860Z,18.92
2018-11-26T10:26:01.823Z,18.92
2018-11-26T10:27:01.721Z,18.91
2018-11-26T10:28:01.618Z,18.91
2018-11-26T10:29:01.968Z,18.91
2018-11-26T10:30:01.872Z,18.92
2018-11-26T10:31:01.645Z,18.91
2018-11-26T10:32:01.648Z,18.91
2018-11-26T10:33:01.549Z,18.91
2018-11-26T10:34:01.821Z,18.92
2018-11-26T10:35:01.895Z,18.92
2018-11-26T10:36:01.751Z,18.92
2018-11-26T10:37:01.817Z,18.91
2018-11-26T10:38:01.794Z,18.92
2018-11-26T10:39:02.039Z,18.92
2018-11-26T10:40:02.206Z,18.91
2018-11-26T10:41:02.141Z,18.91
2018-11-26T10:42:01.609Z,18.91
2018-11-26T10:43:02.021Z,18.91
2018-11-26T10:44:01.922Z,18.91
2018-11-26T10:45:02.122Z,18.92
2018-11-26T10:46:01.738Z,18.92
2018-11-26T10:47:01.727Z,18.91
2018-11-26T10:48:02.701Z,18.92
2018-11-26T10:49:02.541Z,18.91
2018-11-26T10:50:02.145Z,18.91
2018-11-26T10:51:01.818Z,18.92
2018-11-26T10:52:02.120Z,18.91
2018-11-26T10:53:01.727Z,18.9
2018-11-26T10:54:01.661Z,18.9
2018-11-26T10:55:01.596Z,18.9
2018-11-26T10:56:01.761Z,18.9
2018-11-26T10:57:01.675Z,18.91
2018-11-26T10:58:01.671Z,18.91
2018-11-26T10:59:01.737Z,18.9
2018-11-26T11:00:01.995Z,18.91
2018-11-26T11:01:01.647Z,18.91
2018-11-26T11:02:01.798Z,18.9
2018-11-26T11:03:01.592Z,18.9
2018-11-26T11:04:01.754Z,18.9
2018-11-26T11:05:01.658Z,18.9
2018-11-26T11:06:02.309Z,18.9
2018-11-26T11:07:01.585Z,18.91
2018-11-26T11:08:01.614Z,18.9
2018-11-26T11:09:01.583Z,18.9
2018-11-26T11:10:01.744Z,18.9
2018-11-26T11:11:01.702Z,18.91
2018-11-26T11:12:01.490Z,18.91
2018-11-26T11:13:01.752Z,18.9
2018-11-26T11:14:01.672Z,18.9
2018-11-26T11:15:01.896Z,18.9
2018-11-26T11:16:01.483Z,18.9
2018-11-26T11:17:01.704Z,18.91
2018-11-26T11:18:01.772Z,18.9
2018-11-26T11:19:01.558Z,18.89
2018-11-26T11:20:01.781Z,18.91
2018-11-26T11:21:01.739Z,18.9
2018-11-26T11:22:01.783Z,18.9
2018-11-26T11:23:01.645Z,18.9
2018-11-26T11:24:02.003Z,18.91
2018-11-26T11:25:01.697Z,18.9
2018-11-26T11:26:01.673Z,18.9
2018-11-26T11:27:02.025Z,18.9
2018-11-26T11:28:01.574Z,18.9
2018-11-26T11:29:01.796Z,18.9
2018-11-26T11:30:01.496Z,18.9
2018-11-26T11:31:01.652Z,18.9
2018-11-26T11:32:01.644Z,18.9
2018-11-26T11:34:01.581Z,18.9
2018-11-26T11:35:01.775Z,18.9
2018-11-26T11:36:01.718Z,18.9
2018-11-26T11:37:01.687Z,18.9
2018-11-26T11:38:02.144Z,18.9
2018-11-26T11:39:01.626Z,18.9
2018-11-26T11:40:01.772Z,18.9
2018-11-26T11:41:01.661Z,18.87
2018-11-26T11:42:01.888Z,18.9
2018-11-26T11:43:02.062Z,18.9
2018-11-26T11:44:01.825Z,18.91
2018-11-26T11:45:01.932Z,18.9
2018-11-26T11:46:01.846Z,18.9
2018-11-26T11:47:01.813Z,18.91
2018-11-26T11:48:01.459Z,18.92
2018-11-26T11:49:01.917Z,18.91
2018-11-26T11:50:01.665Z,18.91
2018-11-26T11:51:01.726Z,18.92
2018-11-26T11:52:01.707Z,18.93
2018-11-26T11:53:01.512Z,18.94
2018-11-26T11:54:01.703Z,18.95
2018-11-26T11:55:02.119Z,18.95
2018-11-26T11:56:01.839Z,18.94
2018-11-26T11:57:01.583Z,18.94
2018-11-26T11:58:01.948Z,18.94
2018-11-26T11:59:01.845Z,18.94
2018-11-26T12:00:01.840Z,18.94
2018-11-26T12:01:01.982Z,18.95
2018-11-26T12:02:02.037Z,18.94
2018-11-26T12:03:03.089Z,18.94
2018-11-26T12:04:01.642Z,18.94
2018-11-26T12:05:02.297Z,18.95
2018-11-26T12:06:01.439Z,18.94
2018-11-26T12:07:01.479Z,18.94
2018-11-26T12:08:02.029Z,18.94
2018-11-26T12:09:02.262Z,18.94
2018-11-26T12:10:02.048Z,18.94
2018-11-26T12:11:02.200Z,18.94
2018-11-26T12:12:01.941Z,18.95
2018-11-26T12:13:01.873Z,18.94
2018-11-26T12:14:01.869Z,18.94
2018-11-26T12:15:01.669Z,18.94
2018-11-26T12:16:01.885Z,18.95
2018-11-26T12:17:01.868Z,18.94
2018-11-26T12:18:01.670Z,18.94
2018-11-26T12:19:01.502Z,18.94
2018-11-26T12:20:01.968Z,18.95
2018-11-26T12:21:01.776Z,18.94
2018-11-26T12:22:01.663Z,18.93
2018-11-26T12:23:01.942Z,18.94
2018-11-26T12:24:01.666Z,18.94
2018-11-26T12:25:01.950Z,18.94
2018-11-26T12:26:01.647Z,18.94
2018-11-26T12:27:01.581Z,18.94
2018-11-26T12:28:02.441Z,18.93
2018-11-26T12:29:01.684Z,18.94
2018-11-26T12:30:02.188Z,18.93
2018-11-26T12:31:01.765Z,18.93
2018-11-26T12:32:01.803Z,18.93
2018-11-26T12:33:01.589Z,18.94
2018-11-26T12:34:01.691Z,18.93
2018-11-26T12:35:01.620Z,18.93
2018-11-26T12:36:01.849Z,18.93
2018-11-26T12:37:01.572Z,18.93
2018-11-26T12:38:01.600Z,18.93
2018-11-26T12:39:01.778Z,18.93
2018-11-26T12:40:01.599Z,18.93
2018-11-26T12:41:01.752Z,18.92
2018-11-26T12:42:04.166Z,18.93
2018-11-26T12:43:01.585Z,18.92
2018-11-26T12:44:01.751Z,18.91
2018-11-26T12:45:01.613Z,18.92
2018-11-26T12:46:01.802Z,18.92
2018-11-26T12:47:01.955Z,18.92
2018-11-26T12:48:01.688Z,18.92
2018-11-26T12:49:01.643Z,18.91
2018-11-26T12:50:01.840Z,18.91
2018-11-26T12:51:01.675Z,18.91
2018-11-26T12:52:01.744Z,18.92
2018-11-26T12:53:01.629Z,18.91
2018-11-26T12:54:01.550Z,18.9
2018-11-26T12:55:01.702Z,18.91
2018-11-26T12:56:01.596Z,18.91
2018-11-26T12:57:01.807Z,18.91